Time;durP1;ratioP1;P1;durP2;ratioP2;P2;SDS_P1;SDS_P2;PMS_P1;PMS_P2;Temp;Humidity;BMP_temperature;BMP_pressure;BME280_temperature;BME280_humidity;BME280_pressure;Samples;Min_cycle;Max_cycle;Signal;HPM_P1;HPM_P2
2023/07/27 00:00:52;;;;;;;10.43;6.47;;;18.50;81.10;;;;;;5078840;28;20095;-76
2023/07/27 00:03:18;;;;;;;9.75;6.75;;;18.50;81.90;;;;;;5095288;28;20055;-76
2023/07/27 00:05:43;;;;;;;11.90;6.63;;;18.40;82.50;;;;;;5096591;28;20035;-76
2023/07/27 00:08:09;;;;;;;13.90;7.10;;;18.30;83.00;;;;;;5095677;28;20033;-76
2023/07/27 00:10:34;;;;;;;10.00;6.50;;;18.20;83.60;;;;;;5096374;28;20032;-76
2023/07/27 00:13:00;;;;;;;10.73;6.40;;;18.20;84.20;;;;;;5095319;28;20043;-76
2023/07/27 00:15:26;;;;;;;8.65;6.25;;;18.10;84.50;;;;;;5095262;28;20028;-76
2023/07/27 00:17:51;;;;;;;11.45;6.35;;;18.10;84.60;;;;;;5095214;28;20021;-76
2023/07/27 00:20:17;;;;;;;9.77;6.60;;;18.10;84.80;;;;;;5096118;28;20078;-76
2023/07/27 00:22:43;;;;;;;9.73;6.25;;;18.10;84.70;;;;;;5078530;28;20035;-76
2023/07/27 00:25:08;;;;;;;8.25;5.75;;;18.10;85.00;;;;;;5095254;28;20116;-76
2023/07/27 00:27:34;;;;;;;7.93;5.28;;;18.00;84.80;;;;;;5078357;28;20056;-76
2023/07/27 00:30:00;;;;;;;6.63;5.15;;;18.00;84.50;;;;;;5096041;28;20028;-76
2023/07/27 00:32:25;;;;;;;7.47;5.25;;;18.10;84.20;;;;;;5095081;28;20055;-76
2023/07/27 00:34:54;;;;;;;8.10;5.20;;;18.20;84.00;;;;;;5094714;28;20025;-76
2023/07/27 00:37:20;;;;;;;8.05;4.85;;;18.30;84.00;;;;;;5095021;28;20055;-76
2023/07/27 00:39:45;;;;;;;8.13;4.78;;;18.30;83.80;;;;;;5078268;28;20032;-76
2023/07/27 00:42:11;;;;;;;7.15;4.68;;;18.30;83.80;;;;;;5094801;28;20052;-76
2023/07/27 00:44:36;;;;;;;9.20;4.43;;;18.20;84.20;;;;;;5078010;28;20051;-76
2023/07/27 00:47:02;;;;;;;9.02;4.70;;;18.20;84.50;;;;;;5095764;28;20025;-76
2023/07/27 00:49:30;;;;;;;6.55;4.38;;;18.20;84.50;;;;;;5077981;28;20036;-76
2023/07/27 00:51:56;;;;;;;9.82;4.95;;;18.20;85.00;;;;;;5095657;28;20025;-76
2023/07/27 00:54:22;;;;;;;7.57;4.70;;;18.10;85.20;;;;;;5078054;28;20024;-76
2023/07/27 00:56:49;;;;;;;8.40;4.65;;;18.10;85.40;;;;;;5077844;28;20035;-76
2023/07/27 00:59:15;;;;;;;8.27;4.90;;;18.10;85.70;;;;;;5094484;28;20043;-76
2023/07/27 01:01:40;;;;;;;7.10;4.47;;;18.10;85.70;;;;;;5094478;28;20068;-76
2023/07/27 01:04:06;;;;;;;7.25;4.93;;;18.20;86.70;;;;;;5077632;28;20040;-76
2023/07/27 01:06:32;;;;;;;6.63;4.25;;;18.00;86.60;;;;;;5094395;28;20054;-76
2023/07/27 01:08:58;;;;;;;6.35;4.22;;;18.10;86.60;;;;;;5093049;28;20407;-76
2023/07/27 01:11:54;;;;;;;7.78;4.72;;;18.10;86.60;;;;;;5094285;28;20099;-76
2023/07/27 01:14:22;;;;;;;6.90;4.30;;;18.10;86.70;;;;;;5094254;28;20032;-76
2023/07/27 01:17:28;;;;;;;9.68;4.78;;;18.10;87.00;;;;;;5095252;28;20032;-76
2023/07/27 01:20:19;;;;;;;7.35;4.63;;;18.00;87.10;;;;;;5095157;28;20052;-76
2023/07/27 01:23:11;;;;;;;8.98;4.85;;;18.00;87.30;;;;;;5094165;28;20041;-76
2023/07/27 01:26:07;;;;;;;7.78;4.05;;;18.00;87.60;;;;;;5095176;28;20025;-76
2023/07/27 01:28:48;;;;;;;6.85;4.15;;;18.00;87.70;;;;;;5094025;28;20039;-76
2023/07/27 01:31:20;;;;;;;8.90;4.43;;;18.00;87.90;;;;;;5093955;28;20024;-76
2023/07/27 01:33:52;;;;;;;8.80;4.50;;;18.00;88.00;;;;;;5093830;28;20119;-76
2023/07/27 01:36:23;;;;;;;9.40;4.85;;;18.00;88.30;;;;;;5094756;28;20054;-76
2023/07/27 01:38:51;;;;;;;9.38;4.85;;;18.00;88.50;;;;;;5093796;28;20024;-76
2023/07/27 01:41:19;;;;;;;7.35;4.93;;;17.90;88.80;;;;;;5077002;28;20032;-76
2023/07/27 01:43:45;;;;;;;7.07;4.65;;;17.90;89.20;;;;;;5093637;28;20074;-76
2023/07/27 01:46:12;;;;;;;6.93;4.53;;;17.90;89.60;;;;;;5093563;28;20028;-75
2023/07/27 01:48:42;;;;;;;9.35;5.20;;;17.80;89.80;;;;;;5094516;28;20024;-76
2023/07/27 01:51:09;;;;;;;8.80;5.40;;;17.90;90.10;;;;;;5093509;28;20039;-76
2023/07/27 01:53:36;;;;;;;9.43;5.13;;;17.70;90.20;;;;;;5094632;28;20032;-76
2023/07/27 01:56:04;;;;;;;9.20;5.13;;;17.60;90.60;;;;;;5093381;28;20035;-77
2023/07/27 01:58:31;;;;;;;8.57;5.13;;;17.60;90.80;;;;;;5094310;28;20088;-76
2023/07/27 02:00:57;;;;;;;6.55;4.78;;;17.60;90.70;;;;;;5076727;28;20021;-75
2023/07/27 02:03:23;;;;;;;8.20;5.03;;;17.60;90.80;;;;;;5093048;28;20053;-76
2023/07/27 02:05:49;;;;;;;9.23;4.97;;;17.60;90.80;;;;;;5093221;28;20028;-76
2023/07/27 02:08:14;;;;;;;7.88;4.50;;;17.60;90.60;;;;;;5093295;28;20088;-76
2023/07/27 02:10:41;;;;;;;7.55;4.65;;;17.60;90.70;;;;;;5094106;28;20092;-76
2023/07/27 02:13:25;;;;;;;7.22;4.55;;;17.60;90.80;;;;;;5094026;28;20028;-76
2023/07/27 02:16:04;;;;;;;8.02;4.80;;;17.70;90.60;;;;;;5093964;28;20119;-76
2023/07/27 02:18:31;;;;;;;6.45;4.53;;;17.70;90.60;;;;;;5094102;28;20046;-76
2023/07/27 02:20:58;;;;;;;9.20;4.82;;;17.70;90.70;;;;;;5076103;28;20033;-76
2023/07/27 02:23:24;;;;;;;7.93;4.72;;;17.70;90.60;;;;;;5092822;28;20024;-76
2023/07/27 02:25:50;;;;;;;9.52;4.95;;;17.70;90.60;;;;;;5076176;28;20032;-76
2023/07/27 02:28:15;;;;;;;7.22;4.55;;;17.70;90.60;;;;;;5092930;28;20084;-76
2023/07/27 02:30:41;;;;;;;8.27;4.63;;;17.70;90.60;;;;;;5092816;28;20040;-76
2023/07/27 02:33:06;;;;;;;6.90;4.45;;;17.70;90.50;;;;;;5092792;28;20036;-76
2023/07/27 02:35:32;;;;;;;7.93;4.90;;;17.70;90.60;;;;;;5092675;28;20063;-76
2023/07/27 02:37:58;;;;;;;7.40;4.75;;;17.70;90.80;;;;;;5075899;28;20123;-76
2023/07/27 02:40:23;;;;;;;9.43;4.88;;;17.60;90.80;;;;;;5093639;28;20096;-76
2023/07/27 02:42:49;;;;;;;7.43;4.60;;;17.60;90.80;;;;;;5093560;28;20028;-76
2023/07/27 02:45:14;;;;;;;10.18;4.70;;;17.60;90.80;;;;;;5093592;28;20021;-76
2023/07/27 02:47:40;;;;;;;8.30;4.75;;;17.60;91.00;;;;;;5093546;28;20359;-77
2023/07/27 02:50:06;;;;;;;8.80;4.50;;;17.60;91.00;;;;;;5093485;28;20024;-76
2023/07/27 02:52:32;;;;;;;10.00;4.82;;;17.60;90.90;;;;;;5092574;28;20044;-76
2023/07/27 02:54:57;;;;;;;9.18;4.13;;;17.70;91.00;;;;;;5092452;28;20036;-77
2023/07/27 02:57:23;;;;;;;7.97;4.57;;;17.70;91.00;;;;;;5092519;28;20029;-77
2023/07/27 02:59:49;;;;;;;8.43;4.90;;;17.70;91.00;;;;;;5093396;28;20032;-76
2023/07/27 03:02:15;;;;;;;8.50;4.90;;;17.70;91.10;;;;;;5092228;28;20025;-76
2023/07/27 03:04:40;;;;;;;10.30;5.53;;;17.70;91.10;;;;;;5092461;28;20017;-76
2023/07/27 03:07:06;;;;;;;7.88;5.30;;;17.60;91.20;;;;;;5093437;28;20074;-76
2023/07/27 03:09:33;;;;;;;6.55;4.57;;;17.60;91.20;;;;;;5093287;28;20032;-76
2023/07/27 03:11:58;;;;;;;9.57;5.55;;;17.60;91.40;;;;;;5092445;28;20035;-76
2023/07/27 03:14:24;;;;;;;8.15;5.03;;;17.50;91.50;;;;;;5093254;28;20028;-76
2023/07/27 03:16:50;;;;;;;7.90;4.72;;;17.40;91.60;;;;;;5092265;28;20071;-76
2023/07/27 03:19:15;;;;;;;9.45;5.82;;;17.40;91.80;;;;;;5093215;28;20481;-76
2023/07/27 03:21:41;;;;;;;7.50;4.82;;;17.40;91.80;;;;;;5093187;28;20016;-76
2023/07/27 03:24:07;;;;;;;8.32;5.30;;;17.40;91.80;;;;;;5092256;28;20027;-76
2023/07/27 03:26:33;;;;;;;10.18;5.30;;;17.50;91.80;;;;;;5092212;28;20084;-76
2023/07/27 03:28:58;;;;;;;9.32;5.45;;;17.40;91.70;;;;;;5093093;28;20093;-76
2023/07/27 03:31:26;;;;;;;8.75;4.93;;;17.40;91.80;;;;;;5092457;28;20043;-76
2023/07/27 03:33:52;;;;;;;8.68;5.35;;;17.30;91.90;;;;;;5096121;28;20058;-77
2023/07/27 03:36:19;;;;;;;9.13;5.50;;;17.30;91.90;;;;;;5096012;28;20028;-76
2023/07/27 03:38:45;;;;;;;7.63;5.15;;;17.30;91.90;;;;;;5096190;28;20016;-76
2023/07/27 03:41:12;;;;;;;8.45;5.53;;;17.30;92.10;;;;;;5097183;28;20021;-76
2023/07/27 03:43:38;;;;;;;8.55;5.85;;;17.20;92.00;;;;;;5095949;28;20055;-76
2023/07/27 03:46:04;;;;;;;8.57;5.50;;;17.20;92.30;;;;;;5095914;28;20100;-77
2023/07/27 03:48:29;;;;;;;11.57;5.90;;;17.10;92.20;;;;;;5079107;28;20020;-76
2023/07/27 03:50:59;;;;;;;10.07;6.07;;;17.10;92.40;;;;;;5095950;28;20036;-76
2023/07/27 03:53:25;;;;;;;9.93;6.40;;;17.10;92.70;;;;;;5096944;28;20017;-76
2023/07/27 03:55:51;;;;;;;11.27;6.47;;;17.00;92.90;;;;;;5095655;28;20028;-76
2023/07/27 03:58:16;;;;;;;10.70;6.20;;;16.90;93.00;;;;;;5095727;28;20039;-77
2023/07/27 04:00:42;;;;;;;11.13;6.25;;;16.90;93.00;;;;;;5095585;28;20054;-77
2023/07/27 04:03:07;;;;;;;9.60;5.88;;;17.00;93.10;;;;;;5078728;28;20044;-76
2023/07/27 04:05:33;;;;;;;8.50;5.45;;;17.10;93.50;;;;;;5096656;28;20048;-77
2023/07/27 04:07:59;;;;;;;9.93;5.90;;;17.00;93.10;;;;;;5095562;28;20097;-76
2023/07/27 04:10:24;;;;;;;8.98;5.57;;;17.00;93.20;;;;;;5095516;28;20096;-76
2023/07/27 04:12:51;;;;;;;10.13;5.15;;;16.90;93.20;;;;;;5095467;28;20050;-77
2023/07/27 04:15:17;;;;;;;8.93;5.35;;;16.90;93.30;;;;;;5096274;28;20028;-76
2023/07/27 04:17:42;;;;;;;10.57;5.50;;;16.90;93.50;;;;;;5095361;28;20024;-76
2023/07/27 04:20:09;;;;;;;9.98;5.57;;;16.90;93.70;;;;;;5096271;28;20063;-76
2023/07/27 04:22:34;;;;;;;10.48;5.80;;;16.80;93.60;;;;;;5095269;28;20033;-77
2023/07/27 04:25:00;;;;;;;8.48;5.13;;;16.80;93.60;;;;;;5095289;28;20490;-76
2023/07/27 04:27:26;;;;;;;8.32;4.90;;;16.90;93.70;;;;;;5095090;28;20039;-77
2023/07/27 04:29:51;;;;;;;7.97;4.80;;;16.80;93.80;;;;;;5078385;28;20029;-76
2023/07/27 04:32:17;;;;;;;9.55;4.80;;;16.80;93.90;;;;;;5095104;28;20029;-77
2023/07/27 04:34:43;;;;;;;6.95;4.28;;;16.80;93.90;;;;;;5094951;28;20029;-77
2023/07/27 04:37:08;;;;;;;6.65;3.80;;;16.80;94.00;;;;;;5095894;28;20029;-77
2023/07/27 04:39:34;;;;;;;7.65;4.40;;;16.80;94.20;;;;;;5078249;28;20028;-77
2023/07/27 04:41:59;;;;;;;5.97;3.88;;;16.70;94.30;;;;;;5095098;28;20032;-77
2023/07/27 04:44:26;;;;;;;7.60;4.10;;;16.70;94.50;;;;;;5094641;28;20035;-77
2023/07/27 04:46:52;;;;;;;6.93;4.38;;;16.60;94.70;;;;;;5095778;28;20025;-77
2023/07/27 04:49:18;;;;;;;8.80;4.10;;;16.60;94.70;;;;;;5094752;28;20028;-77
2023/07/27 04:51:44;;;;;;;6.13;4.13;;;16.50;94.90;;;;;;5095689;28;20025;-77
2023/07/27 04:54:09;;;;;;;7.03;3.88;;;16.50;94.90;;;;;;5095691;28;20039;-77
2023/07/27 04:56:35;;;;;;;7.38;3.92;;;16.60;94.80;;;;;;5094650;28;20039;-77
2023/07/27 04:59:00;;;;;;;6.60;3.65;;;16.60;94.80;;;;;;5094553;28;20029;-77
2023/07/27 05:01:26;;;;;;;8.10;4.22;;;16.60;94.80;;;;;;5094546;28;20048;-76
2023/07/27 05:03:52;;;;;;;5.78;4.20;;;16.60;94.90;;;;;;5095052;28;20076;-77
2023/07/27 05:06:17;;;;;;;9.65;4.07;;;16.70;94.90;;;;;;5077722;28;20058;-76
2023/07/27 05:08:43;;;;;;;6.07;3.50;;;16.60;95.00;;;;;;5095520;28;20021;-76
2023/07/27 05:11:10;;;;;;;6.55;3.67;;;16.60;95.10;;;;;;5095328;28;20033;-76
2023/07/27 05:13:36;;;;;;;5.65;3.42;;;16.50;95.30;;;;;;5094607;28;20024;-76
2023/07/27 05:16:02;;;;;;;6.95;3.72;;;16.50;95.30;;;;;;5095158;28;20497;-76
2023/07/27 05:18:28;;;;;;;5.05;3.55;;;16.60;95.60;;;;;;5095186;28;20023;-76
2023/07/27 05:20:55;;;;;;;6.50;3.75;;;16.50;95.50;;;;;;5077361;28;20096;-76
2023/07/27 05:23:20;;;;;;;5.88;3.80;;;16.50;95.70;;;;;;5095091;28;20456;-76
2023/07/27 05:25:47;;;;;;;6.28;3.58;;;16.60;95.70;;;;;;5095110;28;20036;-76
2023/07/27 05:28:13;;;;;;;6.32;3.80;;;16.60;95.70;;;;;;5094979;28;20032;-76
2023/07/27 05:30:38;;;;;;;5.75;3.75;;;16.70;95.70;;;;;;5077166;28;20025;-76
2023/07/27 05:33:04;;;;;;;5.75;3.55;;;16.60;96.10;;;;;;5093930;28;20047;-76
2023/07/27 05:35:30;;;;;;;4.20;3.22;;;16.50;96.30;;;;;;5094737;28;20037;-76
2023/07/27 05:37:56;;;;;;;5.82;3.50;;;16.50;96.50;;;;;;5094089;28;20055;-76
2023/07/27 05:40:21;;;;;;;4.15;3.20;;;16.50;96.70;;;;;;5077062;28;20145;-76
2023/07/27 05:42:47;;;;;;;4.60;3.05;;;16.50;96.60;;;;;;5093745;28;20055;-76
2023/07/27 05:45:12;;;;;;;5.15;3.55;;;16.50;96.70;;;;;;5077021;28;20036;-76
2023/07/27 05:47:38;;;;;;;5.85;3.65;;;16.50;96.70;;;;;;5093751;28;20054;-76
2023/07/27 05:50:04;;;;;;;5.07;3.28;;;16.60;96.80;;;;;;5094557;28;20028;-76
2023/07/27 05:52:30;;;;;;;5.75;3.50;;;16.60;96.80;;;;;;5094514;28;20084;-76
2023/07/27 05:54:56;;;;;;;5.10;3.38;;;16.60;96.80;;;;;;5093712;28;20039;-76
2023/07/27 05:57:21;;;;;;;5.80;3.47;;;16.60;97.10;;;;;;5076729;28;20048;-76
2023/07/27 05:59:47;;;;;;;4.75;3.38;;;16.60;97.10;;;;;;5094373;28;20048;-76
2023/07/27 06:02:12;;;;;;;5.13;3.17;;;16.60;97.00;;;;;;5076622;28;20039;-76
2023/07/27 06:04:38;;;;;;;4.78;3.00;;;16.60;97.10;;;;;;5094135;28;20041;-74
2023/07/27 06:07:05;;;;;;;4.75;3.15;;;16.60;97.10;;;;;;5076599;28;20025;-75
2023/07/27 06:09:31;;;;;;;6.85;3.45;;;16.70;97.00;;;;;;5093170;28;20055;-76
2023/07/27 06:11:57;;;;;;;4.25;2.70;;;16.70;97.10;;;;;;5093096;28;20036;-77
2023/07/27 06:14:23;;;;;;;3.47;2.72;;;16.70;97.10;;;;;;5093182;28;20138;-76
2023/07/27 06:16:49;;;;;;;5.40;2.65;;;16.70;97.20;;;;;;5093951;28;20028;-76
2023/07/27 06:19:14;;;;;;;4.28;3.00;;;16.70;97.40;;;;;;5093265;28;20474;-76
2023/07/27 06:21:40;;;;;;;5.20;3.03;;;16.70;97.30;;;;;;5076291;28;20025;-78
2023/07/27 06:24:07;;;;;;;4.32;2.95;;;16.80;97.30;;;;;;5092877;28;20036;-76
2023/07/27 06:26:33;;;;;;;3.75;2.85;;;16.80;97.40;;;;;;5076396;28;20058;-76
2023/07/27 06:28:59;;;;;;;5.22;3.78;;;16.80;97.60;;;;;;5076163;28;20033;-76
2023/07/27 06:31:24;;;;;;;4.00;2.88;;;16.90;97.50;;;;;;5092823;28;20056;-76
2023/07/27 06:33:50;;;;;;;5.00;2.85;;;16.90;97.40;;;;;;5092616;28;20024;-76
2023/07/27 06:36:17;;;;;;;4.88;3.40;;;16.90;97.50;;;;;;5075985;28;20096;-77
2023/07/27 06:38:43;;;;;;;6.95;3.40;;;17.00;97.80;;;;;;5092702;28;20021;-76
2023/07/27 06:41:09;;;;;;;3.67;2.60;;;17.00;97.70;;;;;;5093625;28;20017;-77
2023/07/27 06:43:34;;;;;;;4.30;3.10;;;17.00;97.60;;;;;;5092669;28;20037;-76
2023/07/27 06:46:00;;;;;;;3.83;2.65;;;17.00;97.80;;;;;;5092679;28;20043;-78
2023/07/27 06:48:26;;;;;;;4.55;3.00;;;17.00;97.90;;;;;;5092701;28;20029;-76
2023/07/27 06:50:52;;;;;;;4.43;2.72;;;17.10;97.80;;;;;;5093481;28;20028;-76
2023/07/27 06:53:17;;;;;;;3.85;2.85;;;17.10;97.90;;;;;;5093479;28;20032;-76
2023/07/27 06:55:43;;;;;;;4.07;3.20;;;17.10;98.00;;;;;;5092489;28;20082;-76
2023/07/27 06:58:09;;;;;;;4.78;3.00;;;17.10;98.00;;;;;;5093400;28;20025;-76
2023/07/27 07:00:36;;;;;;;3.35;2.83;;;17.10;98.10;;;;;;5092472;28;20471;-76
2023/07/27 07:03:01;;;;;;;3.90;2.75;;;17.10;98.10;;;;;;5093243;28;20485;-76
2023/07/27 07:05:27;;;;;;;6.25;2.97;;;17.20;98.20;;;;;;5093362;28;20055;-76
2023/07/27 07:07:53;;;;;;;3.70;2.95;;;17.20;98.20;;;;;;5092441;28;20129;-76
2023/07/27 07:10:18;;;;;;;3.60;2.67;;;17.30;98.10;;;;;;5093287;28;20050;-76
2023/07/27 07:12:44;;;;;;;3.28;2.15;;;17.30;98.40;;;;;;5093285;28;20104;-76
2023/07/27 07:15:10;;;;;;;3.35;2.40;;;17.30;98.30;;;;;;5092208;28;20107;-76
2023/07/27 07:17:36;;;;;;;3.60;2.60;;;17.20;98.30;;;;;;5092273;28;20043;-76
2023/07/27 07:20:05;;;;;;;3.20;2.40;;;17.30;98.30;;;;;;5075484;28;20047;-77
2023/07/27 07:22:32;;;;;;;3.55;2.60;;;17.40;98.50;;;;;;5092215;28;20024;-76
2023/07/27 07:24:58;;;;;;;4.05;2.50;;;17.40;98.60;;;;;;5093165;28;20023;-77
2023/07/27 07:27:23;;;;;;;3.45;2.38;;;17.30;98.50;;;;;;5075484;28;20041;-76
2023/07/27 07:29:49;;;;;;;3.53;2.80;;;17.40;98.60;;;;;;5092174;28;20033;-76
2023/07/27 07:32:15;;;;;;;3.10;2.33;;;17.40;98.70;;;;;;5093256;28;20029;-76
2023/07/27 07:34:40;;;;;;;4.35;2.30;;;17.40;99.00;;;;;;5075350;28;20028;-76
2023/07/27 07:37:06;;;;;;;3.50;2.17;;;17.40;99.00;;;;;;5091967;28;20109;-76
2023/07/27 07:39:32;;;;;;;3.97;2.35;;;17.40;98.80;;;;;;5093016;28;20036;-76
2023/07/27 07:41:58;;;;;;;3.55;2.60;;;17.40;99.30;;;;;;5092041;28;20046;-77
2023/07/27 07:44:24;;;;;;;3.45;2.30;;;17.50;99.50;;;;;;5092977;28;20039;-76
2023/07/27 07:46:50;;;;;;;2.67;2.40;;;17.50;99.30;;;;;;5075229;28;20092;-76
2023/07/27 07:49:16;;;;;;;2.40;2.05;;;17.50;99.30;;;;;;5075177;28;20029;-76
2023/07/27 07:51:41;;;;;;;5.80;2.55;;;17.50;99.50;;;;;;5092910;28;20073;-77
2023/07/27 07:54:07;;;;;;;2.85;2.30;;;17.50;99.80;;;;;;5091937;28;20115;-76
2023/07/27 07:56:33;;;;;;;6.07;2.58;;;17.60;99.70;;;;;;5091835;28;20024;-76
2023/07/27 07:58:59;;;;;;;3.55;2.10;;;17.60;99.70;;;;;;5092033;28;20067;-77
2023/07/27 08:01:25;;;;;;;3.80;2.58;;;17.60;99.90;;;;;;5091973;28;20029;-77
2023/07/27 08:03:52;;;;;;;4.70;2.65;;;17.60;99.90;;;;;;5091657;28;20056;-78
2023/07/27 08:06:17;;;;;;;3.95;2.40;;;17.70;99.90;;;;;;5091801;28;20054;-78
2023/07/27 08:08:43;;;;;;;2.97;2.20;;;17.70;99.90;;;;;;5091896;28;20029;-78
2023/07/27 08:11:09;;;;;;;2.60;2.17;;;17.70;99.90;;;;;;5091743;28;20032;-77
2023/07/27 08:13:35;;;;;;;3.50;2.30;;;17.70;99.90;;;;;;5091785;28;20036;-77
2023/07/27 08:16:03;;;;;;;3.20;2.28;;;17.70;99.80;;;;;;5091751;28;20024;-77
2023/07/27 08:18:29;;;;;;;2.97;2.20;;;17.70;99.90;;;;;;5094504;28;20020;-78
2023/07/27 08:21:05;;;;;;;4.05;2.40;;;17.80;99.90;;;;;;5095435;28;20025;-75
2023/07/27 08:23:31;;;;;;;3.83;2.92;;;17.80;99.90;;;;;;5096233;28;20024;-79
2023/07/27 08:25:58;;;;;;;3.78;2.80;;;17.80;99.90;;;;;;5078580;28;20029;-78
2023/07/27 08:28:23;;;;;;;5.13;2.67;;;17.80;99.90;;;;;;5095196;28;20029;-78
2023/07/27 08:30:50;;;;;;;4.60;3.00;;;17.90;99.90;;;;;;5095102;28;20051;-78
2023/07/27 08:33:16;;;;;;;5.03;3.30;;;17.90;99.90;;;;;;5096061;28;20024;-77
2023/07/27 08:35:42;;;;;;;5.22;3.22;;;17.90;99.90;;;;;;5078208;28;20039;-78
2023/07/27 08:38:07;;;;;;;3.70;2.92;;;18.00;99.90;;;;;;5094917;28;20016;-77
2023/07/27 08:40:33;;;;;;;4.88;3.85;;;18.10;99.90;;;;;;5094981;28;20055;-78
2023/07/27 08:42:59;;;;;;;4.93;3.40;;;18.10;99.90;;;;;;5095863;28;20028;-77
2023/07/27 08:45:25;;;;;;;4.40;3.25;;;18.20;99.90;;;;;;5078203;28;20025;-78
2023/07/27 08:47:53;;;;;;;4.78;3.42;;;18.20;99.90;;;;;;5094867;28;20088;-78
2023/07/27 08:50:19;;;;;;;4.20;3.17;;;18.20;99.90;;;;;;5095747;28;20043;-78
2023/07/27 08:52:45;;;;;;;3.92;2.72;;;18.20;99.90;;;;;;5094641;28;20016;-77
2023/07/27 08:55:11;;;;;;;2.65;2.17;;;18.30;99.90;;;;;;5095582;28;20074;-78
2023/07/27 08:57:37;;;;;;;3.92;2.50;;;18.20;99.90;;;;;;5095578;28;20060;-77
2023/07/27 09:00:03;;;;;;;4.15;2.38;;;18.30;99.90;;;;;;5094651;28;20028;-78
2023/07/27 09:02:29;;;;;;;4.30;2.45;;;18.40;99.90;;;;;;5077731;28;20459;-78
2023/07/27 09:04:54;;;;;;;3.53;2.17;;;18.40;99.90;;;;;;5095318;28;20059;-78
2023/07/27 09:07:20;;;;;;;3.65;2.20;;;18.40;99.90;;;;;;5094396;28;20043;-78
2023/07/27 09:09:53;;;;;;;4.50;2.47;;;18.30;99.90;;;;;;5095407;28;20052;-78
2023/07/27 09:12:21;;;;;;;2.80;2.20;;;18.30;99.90;;;;;;5077642;28;20037;-78
2023/07/27 09:14:47;;;;;;;3.33;2.38;;;18.40;99.90;;;;;;5095257;28;20114;-78
2023/07/27 09:17:13;;;;;;;3.83;2.30;;;18.40;99.90;;;;;;5095148;28;20029;-78
2023/07/27 09:19:42;;;;;;;6.00;2.72;;;18.50;99.90;;;;;;5095243;28;20028;-78
2023/07/27 09:22:08;;;;;;;3.13;2.20;;;18.50;99.90;;;;;;5095129;28;20020;-77
2023/07/27 09:24:35;;;;;;;3.28;2.47;;;18.50;99.90;;;;;;5094178;28;20032;-78
2023/07/27 09:27:02;;;;;;;3.53;2.47;;;18.60;99.90;;;;;;5094321;28;20119;-77
2023/07/27 09:29:28;;;;;;;3.65;2.90;;;18.60;99.90;;;;;;5093904;28;20031;-77
2023/07/27 09:32:00;;;;;;;3.85;2.58;;;18.60;99.90;;;;;;5094889;28;20024;-78
2023/07/27 09:34:31;;;;;;;3.75;2.70;;;18.60;99.90;;;;;;5094870;28;20020;-78
2023/07/27 09:37:01;;;;;;;3.25;2.33;;;18.60;99.90;;;;;;5093777;28;20039;-76
2023/07/27 09:39:28;;;;;;;4.18;2.47;;;18.60;99.90;;;;;;5094842;28;20024;-77
2023/07/27 09:41:54;;;;;;;3.08;2.17;;;18.70;99.90;;;;;;5094816;28;20024;-77
2023/07/27 09:44:21;;;;;;;4.18;2.70;;;18.70;99.90;;;;;;5094718;28;20024;-77
2023/07/27 09:46:47;;;;;;;4.05;2.53;;;18.70;99.90;;;;;;5093668;28;20021;-77
2023/07/27 09:49:14;;;;;;;3.10;2.30;;;18.70;99.90;;;;;;5093602;28;20092;-77
2023/07/27 09:51:40;;;;;;;2.83;1.95;;;18.70;99.90;;;;;;5127461;28;20024;-77
2023/07/27 09:54:06;;;;;;;2.63;1.98;;;18.60;99.90;;;;;;5076805;28;20035;-76
2023/07/27 09:56:33;;;;;;;3.55;2.05;;;18.50;99.90;;;;;;5093381;28;20032;-76
2023/07/27 09:58:59;;;;;;;2.63;2.00;;;18.50;99.90;;;;;;5094420;28;20052;-77
2023/07/27 10:01:26;;;;;;;3.53;2.40;;;18.50;99.90;;;;;;5094411;28;20095;-76
2023/07/27 10:03:57;;;;;;;2.97;1.95;;;18.50;99.90;;;;;;5094186;28;20048;-77
2023/07/27 10:06:27;;;;;;;2.85;2.10;;;18.50;99.90;;;;;;5094405;28;20059;-77
2023/07/27 10:08:54;;;;;;;3.67;2.42;;;18.50;99.90;;;;;;5094187;28;20024;-77
2023/07/27 10:11:55;;;;;;;4.18;2.70;;;18.50;99.90;;;;;;5093128;28;20096;-77
2023/07/27 10:14:25;;;;;;;3.45;2.10;;;18.60;99.90;;;;;;5094126;28;20040;-77
2023/07/27 10:16:58;;;;;;;3.33;2.38;;;18.60;99.90;;;;;;5094004;28;20051;-77
2023/07/27 10:19:24;;;;;;;4.20;2.30;;;18.60;99.90;;;;;;5093031;28;20025;-76
2023/07/27 10:21:51;;;;;;;3.03;2.30;;;18.70;99.90;;;;;;5093085;28;20024;-77
2023/07/27 10:24:24;;;;;;;2.50;1.80;;;18.70;99.90;;;;;;5076455;28;20017;-76
2023/07/27 10:26:52;;;;;;;3.00;2.20;;;18.60;99.90;;;;;;5092853;28;20071;-77
2023/07/27 10:29:22;;;;;;;2.60;1.88;;;18.60;99.90;;;;;;5076214;28;20028;-76
2023/07/27 10:32:21;;;;;;;3.03;1.92;;;18.60;99.90;;;;;;5076282;28;20028;-76
2023/07/27 10:34:51;;;;;;;3.10;2.10;;;18.60;99.90;;;;;;5060257;28;20047;-76
2023/07/27 10:37:17;;;;;;;4.35;2.28;;;18.70;99.90;;;;;;5092637;28;20055;-76
2023/07/27 10:39:48;;;;;;;3.00;1.98;;;18.60;99.90;;;;;;5092823;28;20028;-77
2023/07/27 10:42:22;;;;;;;3.00;2.00;;;18.70;99.90;;;;;;5092316;28;20093;-76
2023/07/27 10:44:58;;;;;;;2.92;2.10;;;18.70;99.90;;;;;;5093623;28;20016;-77
2023/07/27 10:47:25;;;;;;;3.40;1.90;;;18.60;99.90;;;;;;5075994;28;20029;-76
2023/07/27 10:49:56;;;;;;;2.35;1.90;;;18.70;99.90;;;;;;5093543;28;20029;-76
2023/07/27 10:52:30;;;;;;;4.97;2.22;;;18.70;99.90;;;;;;5093522;28;20024;-76
2023/07/27 10:54:58;;;;;;;3.50;2.17;;;18.80;99.90;;;;;;5093504;28;20039;-77
2023/07/27 10:57:25;;;;;;;3.35;2.22;;;18.90;99.90;;;;;;5075946;28;20021;-76
2023/07/27 10:59:52;;;;;;;4.55;2.55;;;18.90;99.90;;;;;;5093434;28;20508;-76
2023/07/27 11:02:21;;;;;;;4.53;2.50;;;19.00;99.90;;;;;;5092418;28;20021;-76
2023/07/27 11:04:52;;;;;;;3.08;2.13;;;19.00;99.90;;;;;;5092250;28;20048;-77
2023/07/27 11:07:38;;;;;;;3.40;1.90;;;19.00;99.90;;;;;;5092284;28;20028;-76
2023/07/27 11:10:09;;;;;;;2.80;2.00;;;19.00;99.90;;;;;;5092402;28;20033;-76
2023/07/27 11:12:54;;;;;;;2.42;1.67;;;18.90;99.90;;;;;;5092376;28;20046;-77
2023/07/27 11:15:22;;;;;;;3.17;2.17;;;18.90;99.90;;;;;;5075395;28;20085;-76
2023/07/27 11:17:54;;;;;;;2.80;2.00;;;18.90;99.90;;;;;;5092117;28;20424;-76
2023/07/27 11:20:22;;;;;;;3.17;2.13;;;18.90;99.90;;;;;;5093283;28;20017;-76
2023/07/27 11:22:48;;;;;;;3.58;2.45;;;18.80;99.90;;;;;;5092144;28;20365;-76
2023/07/27 11:25:14;;;;;;;4.18;2.30;;;18.90;99.90;;;;;;5093170;28;20029;-76
2023/07/27 11:27:40;;;;;;;2.97;1.88;;;19.00;99.90;;;;;;5092080;28;20402;-76
2023/07/27 11:30:09;;;;;;;3.30;2.20;;;19.00;99.90;;;;;;5092109;28;20025;-76
2023/07/27 11:32:35;;;;;;;2.53;1.70;;;19.00;99.90;;;;;;5092173;28;20025;-77
2023/07/27 11:35:00;;;;;;;2.83;2.00;;;19.00;99.90;;;;;;5092169;28;20027;-76
2023/07/27 11:37:29;;;;;;;2.63;2.03;;;19.10;99.90;;;;;;5075402;28;20024;-76
2023/07/27 11:39:56;;;;;;;2.47;1.83;;;19.10;99.90;;;;;;5093079;28;20080;-77
2023/07/27 11:42:29;;;;;;;2.50;1.75;;;19.10;99.90;;;;;;5093021;28;20080;-76
2023/07/27 11:44:57;;;;;;;1.90;1.40;;;19.20;99.90;;;;;;5075214;28;20021;-76
2023/07/27 11:47:23;;;;;;;4.95;2.00;;;19.10;99.90;;;;;;5091947;28;20119;-75
2023/07/27 11:49:50;;;;;;;4.78;1.70;;;19.20;99.90;;;;;;5092926;28;20039;-75
2023/07/27 11:52:20;;;;;;;2.20;1.60;;;19.20;99.90;;;;;;5075308;28;20033;-76
2023/07/27 11:54:56;;;;;;;4.20;2.22;;;19.20;99.90;;;;;;5095750;28;20024;-76
2023/07/27 11:57:27;;;;;;;3.10;1.90;;;19.20;99.90;;;;;;5079417;28;20028;-75
2023/07/27 12:00:12;;;;;;;2.15;1.75;;;19.20;99.90;;;;;;5095739;28;20043;-75
2023/07/27 12:02:41;;;;;;;2.38;1.80;;;19.20;99.90;;;;;;5095729;28;20035;-77
2023/07/27 12:05:11;;;;;;;3.13;1.65;;;19.30;99.90;;;;;;5095510;28;20097;-75
2023/07/27 12:07:38;;;;;;;3.72;1.60;;;19.20;99.90;;;;;;5096603;28;20016;-77
2023/07/27 12:10:04;;;;;;;3.38;1.70;;;19.20;99.90;;;;;;5096495;28;20044;-78
2023/07/27 12:12:30;;;;;;;3.60;1.45;;;19.20;99.90;;;;;;5095467;28;20387;-77
2023/07/27 12:14:58;;;;;;;2.72;1.85;;;19.20;99.90;;;;;;5078673;28;20021;-76
2023/07/27 12:17:24;;;;;;;3.08;1.90;;;19.30;99.90;;;;;;5095236;28;20024;-77
2023/07/27 12:19:50;;;;;;;2.75;1.80;;;19.30;99.90;;;;;;5096267;28;20029;-77
2023/07/27 12:22:16;;;;;;;3.13;1.92;;;19.30;99.90;;;;;;5096254;28;20021;-77
2023/07/27 12:24:45;;;;;;;2.28;1.65;;;19.30;99.90;;;;;;5096215;28;20024;-77
2023/07/27 12:27:11;;;;;;;2.92;1.40;;;19.30;99.90;;;;;;5095076;28;20033;-77
2023/07/27 12:29:37;;;;;;;3.60;1.70;;;19.40;99.90;;;;;;5096160;28;20024;-76
2023/07/27 12:32:04;;;;;;;4.25;1.77;;;19.40;99.90;;;;;;5095074;28;20101;-77
2023/07/27 12:34:30;;;;;;;3.80;1.73;;;19.40;99.90;;;;;;5095068;28;20040;-76
2023/07/27 12:36:56;;;;;;;2.72;1.73;;;19.40;99.90;;;;;;5094881;28;20021;-76
2023/07/27 12:39:22;;;;;;;4.25;1.98;;;19.40;99.90;;;;;;5078370;28;20029;-77
2023/07/27 12:41:47;;;;;;;3.03;1.58;;;19.40;99.90;;;;;;5095075;28;20025;-76
2023/07/27 12:44:13;;;;;;;2.50;1.80;;;19.30;99.90;;;;;;5095026;28;20035;-76
2023/07/27 12:46:38;;;;;;;3.13;1.90;;;19.40;99.90;;;;;;5094913;28;20036;-77